createdAt,value
2018-12-18T00:02:16.518Z,101915.20
2018-12-18T00:04:47.559Z,101924.56
2018-12-18T00:07:18.496Z,101919.73
2018-12-18T00:09:47.792Z,101913.00
2018-12-18T00:12:17.911Z,101917.80
2018-12-18T00:14:47.343Z,101909.33
2018-12-18T00:17:16.616Z,101913.74
2018-12-18T00:19:45.894Z,101909.84
2018-12-18T00:22:15.467Z,101913.94
2018-12-18T00:24:45.383Z,101905.91
2018-12-18T00:27:14.872Z,101918.02
2018-12-18T00:29:44.434Z,101912.31
2018-12-18T00:32:13.764Z,101915.54
2018-12-18T00:34:43.039Z,101923.56
2018-12-18T00:37:12.894Z,101926.28
2018-12-18T00:39:42.477Z,101917.84
2018-12-18T00:42:12.854Z,101923.75
2018-12-18T00:44:42.140Z,101921.08
2018-12-18T00:47:12.792Z,101926.88
2018-12-18T00:49:42.061Z,101933.56
2018-12-18T00:52:13.303Z,101931.04
2018-12-18T00:54:42.817Z,101935.05
2018-12-18T00:57:14.444Z,101928.81
2018-12-18T00:59:43.732Z,101929.55
2018-12-18T01:02:13.920Z,101937.88
2018-12-18T01:04:44.208Z,101932.45
2018-12-18T01:07:14.814Z,101935.13
2018-12-18T01:09:45.220Z,101938.13
2018-12-18T01:12:14.824Z,101937.20
2018-12-18T01:14:44.108Z,101946.49
2018-12-18T01:17:13.672Z,101943.37
2018-12-18T01:19:42.996Z,101948.57
2018-12-18T01:22:13.035Z,101943.59
2018-12-18T01:24:42.907Z,101948.34
2018-12-18T01:27:12.978Z,101946.85
2018-12-18T01:29:42.584Z,101949.41
2018-12-18T01:32:12.143Z,101942.72
2018-12-18T01:34:41.520Z,101943.53
2018-12-18T01:37:10.800Z,101952.83
2018-12-18T01:39:40.079Z,101937.30
2018-12-18T01:42:09.360Z,101943.53
2018-12-18T01:44:38.642Z,101927.07
2018-12-18T01:47:07.927Z,101929.59
2018-12-18T01:49:37.535Z,101931.34
2018-12-18T01:54:37.187Z,101928.63
2018-12-18T01:57:06.471Z,101936.58
2018-12-18T01:59:35.841Z,101928.22
2018-12-18T02:02:05.136Z,101923.60
2018-12-18T02:04:34.419Z,101923.60
2018-12-18T02:07:04.184Z,101938.58
2018-12-18T02:09:33.953Z,101933.22
2018-12-18T02:12:03.932Z,101934.72
2018-12-18T02:14:33.515Z,101936.91
2018-12-18T02:17:03.094Z,101942.75
2018-12-18T02:19:32.386Z,101947.95
2018-12-18T02:22:01.676Z,101948.84
2018-12-18T02:24:31.008Z,101948.35
2018-12-18T02:27:01.352Z,101939.91
2018-12-18T02:29:30.890Z,101953.86
2018-12-18T02:32:00.175Z,101959.14
2018-12-18T02:34:30.765Z,101953.78
2018-12-18T02:37:00.601Z,101952.78
2018-12-18T02:39:30.189Z,101950.02
2018-12-18T02:41:59.816Z,101948.23
2018-12-18T02:44:29.120Z,101946.38
2018-12-18T02:46:58.704Z,101941.06
2018-12-18T02:49:28.335Z,101953.59
2018-12-18T02:51:57.769Z,101950.98
2018-12-18T02:54:27.304Z,101942.40
2018-12-18T02:56:56.789Z,101947.11
2018-12-18T02:59:26.133Z,101947.44
2018-12-18T03:01:55.911Z,101951.91
2018-12-18T03:04:25.224Z,101946.09
2018-12-18T03:06:54.513Z,101951.70
2018-12-18T03:09:24.073Z,101952.11
2018-12-18T03:11:53.346Z,101943.07
2018-12-18T03:14:22.947Z,101934.06
2018-12-18T03:16:52.458Z,101931.38
2018-12-18T03:19:22.064Z,101930.45
2018-12-18T03:21:51.328Z,101938.61
2018-12-18T03:24:21.124Z,101941.00
2018-12-18T03:26:50.408Z,101947.98
2018-12-18T03:29:19.996Z,101957.80
2018-12-18T03:31:51.426Z,101960.03
2018-12-18T03:34:28.140Z,101974.64
2018-12-18T03:36:52.371Z,101953.05
2018-12-18T03:39:21.987Z,101969.28
2018-12-18T03:41:51.282Z,101974.97
2018-12-18T03:44:20.870Z,101972.89
2018-12-18T03:46:50.159Z,101973.86
2018-12-18T03:49:19.496Z,101975.28
2018-12-18T03:51:49.048Z,101978.84
2018-12-18T03:54:18.998Z,101974.75
2018-12-18T03:56:48.512Z,101969.92
2018-12-18T03:59:18.100Z,101973.42
2018-12-18T04:01:47.377Z,101968.47
2018-12-18T04:04:16.980Z,101967.58
2018-12-18T04:06:46.397Z,101962.70
2018-12-18T04:09:15.707Z,101963.56
2018-12-18T04:11:50.364Z,101959.22
2018-12-18T04:14:19.662Z,101947.69
2018-12-18T04:16:49.135Z,101946.02
2018-12-18T04:19:18.730Z,101939.86
2018-12-18T04:21:48.107Z,101948.45
2018-12-18T04:24:17.421Z,101943.70
2018-12-18T04:26:47.211Z,101947.56
2018-12-18T04:29:16.795Z,101944.88
2018-12-18T04:31:46.076Z,101948.12
2018-12-18T04:34:15.380Z,101944.88
2018-12-18T04:36:44.661Z,101948.78
2018-12-18T04:39:14.235Z,101956.28
2018-12-18T04:41:43.544Z,101951.86
2018-12-18T04:44:13.471Z,101954.87
2018-12-18T04:46:43.017Z,101958.88
2018-12-18T04:49:13.411Z,101953.13
2018-12-18T04:51:43.519Z,101950.97
2018-12-18T04:54:14.961Z,101955.55
2018-12-18T04:56:44.249Z,101952.80
2018-12-18T04:59:15.373Z,101947.84
2018-12-18T05:01:44.959Z,101942.09
2018-12-18T05:04:14.695Z,101950.11
2018-12-18T05:06:45.025Z,101945.28
2018-12-18T05:09:14.777Z,101948.48
2018-12-18T05:11:44.395Z,101937.45
2018-12-18T05:14:13.671Z,101937.05
2018-12-18T05:16:46.368Z,101951.36
2018-12-18T05:19:16.684Z,101954.93
2018-12-18T05:21:45.999Z,101956.27
2018-12-18T05:24:15.276Z,101963.81
2018-12-18T05:26:44.587Z,101962.03
2018-12-18T05:29:13.884Z,101954.45
2018-12-18T05:31:43.186Z,101950.39
2018-12-18T05:34:13.683Z,101954.41
2018-12-18T05:36:43.151Z,101957.41
2018-12-18T05:39:13.607Z,101957.41
2018-12-18T05:41:43.204Z,101956.41
2018-12-18T05:44:14.408Z,101956.41
2018-12-18T05:46:43.672Z,101955.55
2018-12-18T05:49:13.619Z,101958.15
2018-12-18T05:51:42.916Z,101958.03
2018-12-18T05:54:12.572Z,101962.42
2018-12-18T05:56:42.163Z,101961.89
2018-12-18T05:59:11.466Z,101960.44
2018-12-18T06:01:40.769Z,101958.57
2018-12-18T06:04:10.320Z,101971.47
2018-12-18T06:06:40.007Z,101976.75
2018-12-18T06:09:09.391Z,101972.81
2018-12-18T06:11:38.698Z,101977.77
2018-12-18T06:14:07.967Z,101973.75
2018-12-18T06:16:37.263Z,101975.57
2018-12-18T06:19:06.548Z,101972.89
2018-12-18T06:21:37.253Z,101971.47
2018-12-18T06:24:12.940Z,101973.67
2018-12-18T06:26:42.359Z,101976.91
2018-12-18T06:29:11.696Z,101970.99
2018-12-18T06:31:41.000Z,101977.23
2018-12-18T06:34:10.557Z,101976.50
2018-12-18T06:36:39.851Z,101964.98
2018-12-18T06:39:09.145Z,101978.66
2018-12-18T06:41:38.435Z,101975.90
2018-12-18T06:44:07.867Z,101974.08
2018-12-18T06:46:37.160Z,101978.98
2018-12-18T06:49:06.564Z,101985.67
2018-12-18T06:51:35.859Z,101983.53
2018-12-18T06:54:05.926Z,101983.60
2018-12-18T06:56:36.772Z,101986.28
2018-12-18T06:59:06.136Z,101985.06
2018-12-18T07:01:35.425Z,101981.12
2018-12-18T07:04:04.713Z,101982.38
2018-12-18T07:06:34.254Z,101987.25
2018-12-18T07:09:05.213Z,101989.00
2018-12-18T07:11:35.612Z,101988.59
2018-12-18T07:14:05.741Z,101990.82
2018-12-18T07:16:35.351Z,101984.05
2018-12-18T07:19:04.641Z,101987.55
2018-12-18T07:21:34.220Z,101984.87
2018-12-18T07:24:03.564Z,101992.37
2018-12-18T07:26:32.843Z,101992.42
2018-12-18T07:29:02.137Z,101996.06
2018-12-18T07:31:31.442Z,102002.80
2018-12-18T07:34:00.731Z,102009.97
2018-12-18T07:36:30.311Z,102010.79
2018-12-18T07:38:59.967Z,102012.86
2018-12-18T07:41:29.664Z,102008.89
2018-12-18T07:47:02.247Z,102013.51
2018-12-18T07:49:32.492Z,102006.48
2018-12-18T07:52:01.760Z,102014.19
2018-12-18T07:54:31.045Z,102020.47
2018-12-18T07:57:00.568Z,102021.33
2018-12-18T07:59:30.148Z,102016.98
2018-12-18T08:01:59.471Z,102019.98
2018-12-18T08:04:29.015Z,102012.55
2018-12-18T08:06:58.592Z,102016.38
2018-12-18T08:09:27.872Z,102010.55
2018-12-18T08:11:57.237Z,102019.59
2018-12-18T08:14:26.788Z,102024.23
2018-12-18T08:16:57.684Z,102022.05
2018-12-18T08:19:26.979Z,102021.97
2018-12-18T08:21:56.597Z,102018.77
2018-12-18T08:24:26.178Z,102015.61
2018-12-18T08:26:55.683Z,102020.19
2018-12-18T08:29:25.115Z,102008.47
2018-12-18T08:31:54.698Z,102008.80
2018-12-18T08:34:23.993Z,102010.22
2018-12-18T08:36:53.575Z,102008.92
2018-12-18T08:39:24.092Z,101990.11
2018-12-18T08:41:53.585Z,101999.22
2018-12-18T08:44:23.175Z,101996.61
2018-12-18T08:46:52.611Z,101983.75
2018-12-18T08:49:21.895Z,101981.55
2018-12-18T08:51:51.184Z,101969.44
2018-12-18T08:54:20.763Z,101960.92
2018-12-18T08:56:50.049Z,101951.11
2018-12-18T08:59:20.653Z,101954.52
2018-12-18T09:01:49.937Z,101953.06
2018-12-18T09:04:19.553Z,101952.91
2018-12-18T09:06:48.844Z,101949.30
2018-12-18T09:09:18.127Z,101949.70
2018-12-18T09:11:47.656Z,101947.44
2018-12-18T09:14:17.223Z,101952.31
2018-12-18T09:16:52.168Z,101948.98
2018-12-18T09:19:21.474Z,101945.70
2018-12-18T09:21:50.756Z,101940.60
2018-12-18T09:24:20.293Z,101940.08
2018-12-18T09:26:49.619Z,101952.00
2018-12-18T09:29:19.217Z,101951.84
2018-12-18T09:31:49.611Z,101950.39
2018-12-18T09:34:19.035Z,101943.61
2018-12-18T09:36:48.580Z,101949.98
2018-12-18T09:39:19.572Z,101954.86
2018-12-18T09:41:50.759Z,101951.73
2018-12-18T09:44:20.412Z,101941.27
2018-12-18T09:46:50.949Z,101943.94
2018-12-18T09:49:21.420Z,101941.22
2018-12-18T09:51:51.032Z,101940.73
2018-12-18T09:54:20.328Z,101936.02
2018-12-18T09:56:50.625Z,101944.67
2018-12-18T09:59:20.112Z,101939.38
2018-12-18T10:01:50.399Z,101933.65
2018-12-18T10:04:20.145Z,101932.94
2018-12-18T10:06:49.716Z,101929.55
2018-12-18T10:09:19.007Z,101913.72
2018-12-18T10:11:48.811Z,101911.70
2018-12-18T10:14:18.403Z,101904.98
2018-12-18T10:16:48.587Z,101891.99
2018-12-18T10:19:17.872Z,101902.55
2018-12-18T10:21:47.163Z,101895.27
2018-12-18T10:24:16.664Z,101895.17
2018-12-18T10:26:46.357Z,101886.99
2018-12-18T10:29:16.222Z,101883.00
2018-12-18T10:31:45.492Z,101870.45
2018-12-18T10:34:15.119Z,101864.25
2018-12-18T10:36:44.703Z,101868.95
2018-12-18T10:39:14.342Z,101853.65
2018-12-18T10:41:44.091Z,101854.53
2018-12-18T10:44:14.219Z,101849.28
2018-12-18T10:46:43.928Z,101842.45
2018-12-18T10:49:14.236Z,101841.20
2018-12-18T10:51:43.529Z,101841.75
2018-12-18T10:54:14.089Z,101832.74
2018-12-18T10:56:43.372Z,101834.54
2018-12-18T10:59:14.340Z,101826.92
2018-12-18T11:01:47.875Z,101823.67
2018-12-18T11:04:17.459Z,101827.14
2018-12-18T11:06:46.900Z,101822.66
2018-12-18T11:09:16.266Z,101820.58
2018-12-18T11:11:46.431Z,101803.88
2018-12-18T11:14:15.976Z,101803.37
2018-12-18T11:16:45.240Z,101808.59
2018-12-18T11:19:15.383Z,101790.59
2018-12-18T11:21:44.663Z,101799.17
2018-12-18T11:24:15.268Z,101793.39
2018-12-18T11:26:44.535Z,101798.38
2018-12-18T11:29:14.483Z,101804.86
2018-12-18T11:31:43.988Z,101801.66
2018-12-18T11:34:14.269Z,101792.83
2018-12-18T11:36:44.075Z,101798.40
2018-12-18T11:39:14.973Z,101796.41
2018-12-18T11:41:44.260Z,101790.00
2018-12-18T11:44:14.364Z,101787.22
2018-12-18T11:46:43.992Z,101786.09
2018-12-18T11:49:14.452Z,101786.66
2018-12-18T11:51:43.735Z,101784.92
2018-12-18T11:54:13.011Z,101781.77
2018-12-18T11:56:42.301Z,101786.63
2018-12-18T11:59:12.068Z,101788.83
2018-12-18T12:01:41.381Z,101780.24
2018-12-18T12:04:10.927Z,101764.43
2018-12-18T12:06:40.616Z,101767.75
2018-12-18T12:09:10.175Z,101765.16
2018-12-18T12:11:40.366Z,101762.56
2018-12-18T12:14:10.228Z,101763.88
2018-12-18T12:16:39.519Z,101756.19
2018-12-18T12:19:08.792Z,101745.21
2018-12-18T12:21:38.330Z,101739.42
2018-12-18T12:24:07.612Z,101743.84
2018-12-18T12:26:36.904Z,101735.69
2018-12-18T12:29:06.467Z,101734.14
2018-12-18T12:31:36.064Z,101720.39
2018-12-18T12:34:05.452Z,101718.45
2018-12-18T12:36:34.728Z,101708.72
2018-12-18T12:39:05.836Z,101713.12
2018-12-18T12:41:36.323Z,101699.95
2018-12-18T12:44:05.630Z,101707.80
2018-12-18T12:46:35.628Z,101700.20
2018-12-18T12:49:06.605Z,101693.53
2018-12-18T12:51:36.798Z,101698.06
2018-12-18T12:54:06.562Z,101696.66
2018-12-18T12:56:35.855Z,101697.38
2018-12-18T12:59:05.448Z,101695.88
2018-12-18T13:01:41.935Z,101690.91
2018-12-18T13:04:06.720Z,101686.16
2018-12-18T13:06:36.503Z,101676.55
2018-12-18T13:09:07.744Z,101680.52
2018-12-18T13:11:38.912Z,101671.52
2018-12-18T13:14:08.234Z,101669.88
2018-12-18T13:16:37.528Z,101676.81
2018-12-18T13:19:06.808Z,101680.47
2018-12-18T13:21:37.269Z,101684.29
2018-12-18T13:24:06.536Z,101679.91
2018-12-18T13:26:35.811Z,101676.98
2018-12-18T13:29:05.384Z,101673.05
2018-12-18T13:31:34.695Z,101678.97
2018-12-18T13:34:03.992Z,101676.44
2018-12-18T13:36:33.731Z,101674.49
2018-12-18T13:39:03.524Z,101681.45
2018-12-18T13:41:32.787Z,101679.17
2018-12-18T13:44:03.016Z,101673.16
2018-12-18T13:46:32.879Z,101666.05
2018-12-18T13:49:02.788Z,101660.13
2018-12-18T13:51:32.587Z,101653.31
2018-12-18T13:54:02.400Z,101648.58
2018-12-18T13:56:32.127Z,101643.58
2018-12-18T13:59:01.508Z,101639.95
2018-12-18T14:01:30.944Z,101642.44
2018-12-18T14:04:00.656Z,101633.97
2018-12-18T14:06:29.921Z,101635.41
2018-12-18T14:09:00.278Z,101636.84
2018-12-18T14:11:29.791Z,101630.77
2018-12-18T14:13:59.083Z,101623.45
2018-12-18T14:16:28.648Z,101628.27
2018-12-18T14:18:57.938Z,101623.78
2018-12-18T14:21:27.789Z,101622.23
2018-12-18T14:23:57.076Z,101627.03
2018-12-18T14:26:26.670Z,101613.37
2018-12-18T14:28:55.935Z,101621.20
2018-12-18T14:31:25.516Z,101620.59
2018-12-18T14:33:55.028Z,101619.32
2018-12-18T14:36:24.291Z,101615.59
2018-12-18T14:38:54.575Z,101609.57
2018-12-18T14:41:24.146Z,101604.85
2018-12-18T14:43:53.739Z,101610.35
2018-12-18T14:46:23.011Z,101618.00
2018-12-18T14:48:52.583Z,101615.20
2018-12-18T14:51:21.910Z,101616.66
2018-12-18T14:53:52.680Z,101611.12
2018-12-18T14:56:22.223Z,101619.38
2018-12-18T14:58:51.800Z,101616.59
2018-12-18T15:01:21.077Z,101609.19
2018-12-18T15:03:50.848Z,101614.41
2018-12-18T15:09:04.160Z,101610.23
2018-12-18T15:11:33.833Z,101606.57
2018-12-18T15:14:03.511Z,101609.25
2018-12-18T15:16:33.583Z,101601.84
2018-12-18T15:19:02.863Z,101610.93
2018-12-18T15:21:32.451Z,101613.05
2018-12-18T15:24:05.688Z,101610.63
2018-12-18T15:26:34.968Z,101608.33
2018-12-18T15:29:04.253Z,101609.95
2018-12-18T15:31:33.835Z,101612.34
2018-12-18T15:34:03.772Z,101612.55
2018-12-18T15:36:33.351Z,101612.72
2018-12-18T15:39:02.792Z,101607.90
2018-12-18T15:41:32.957Z,101615.96
2018-12-18T15:44:03.024Z,101612.92
2018-12-18T15:46:32.304Z,101614.05
2018-12-18T15:49:01.888Z,101611.26
2018-12-18T15:51:31.176Z,101610.66
2018-12-18T15:54:00.790Z,101612.52
2018-12-18T15:56:30.250Z,101599.84
2018-12-18T15:59:00.523Z,101600.97
2018-12-18T16:01:29.824Z,101600.12
2018-12-18T16:04:00.147Z,101603.16
2018-12-18T16:06:30.529Z,101607.84
2018-12-18T16:08:59.812Z,101605.98
2018-12-18T16:11:29.389Z,101600.71
2018-12-18T16:13:58.676Z,101594.44
2018-12-18T16:16:28.330Z,101600.30
2018-12-18T16:18:57.760Z,101601.72
2018-12-18T16:21:27.368Z,101594.23
2018-12-18T16:23:56.949Z,101598.03
2018-12-18T16:26:26.251Z,101593.81
2018-12-18T16:28:55.593Z,101595.14
2018-12-18T16:31:24.877Z,101586.73
2018-12-18T16:33:54.156Z,101587.21
2018-12-18T16:36:23.440Z,101587.81
2018-12-18T16:38:52.920Z,101596.15
2018-12-18T16:41:22.809Z,101582.47
2018-12-18T16:43:52.563Z,101587.85
2018-12-18T16:46:22.111Z,101585.94
2018-12-18T16:48:52.168Z,101588.47
2018-12-18T16:51:21.692Z,101583.20
2018-12-18T16:53:51.225Z,101579.28
2018-12-18T16:56:20.666Z,101580.73
2018-12-18T16:58:50.109Z,101585.66
2018-12-18T17:01:20.326Z,101583.88
2018-12-18T17:03:49.948Z,101591.41
2018-12-18T17:06:19.235Z,101595.48
2018-12-18T17:08:49.056Z,101589.78
2018-12-18T17:11:18.619Z,101591.11
2018-12-18T17:13:47.959Z,101589.78
2018-12-18T17:16:17.483Z,101590.38
2018-12-18T17:18:47.020Z,101598.75
2018-12-18T17:21:16.313Z,101581.03
2018-12-18T17:23:45.943Z,101584.52
2018-12-18T17:26:15.777Z,101589.78
2018-12-18T17:28:46.010Z,101585.33
2018-12-18T17:31:15.363Z,101586.92
2018-12-18T17:33:44.649Z,101578.91
2018-12-18T17:36:13.921Z,101576.32
2018-12-18T17:38:43.384Z,101560.59
2018-12-18T17:41:12.657Z,101565.56
2018-12-18T17:43:42.248Z,101558.16
2018-12-18T17:46:11.526Z,101561.23
2018-12-18T17:48:42.959Z,101546.63
2018-12-18T17:51:13.542Z,101547.15
2018-12-18T17:53:43.576Z,101553.08
2018-12-18T17:56:13.832Z,101537.14
2018-12-18T17:58:43.416Z,101530.06
2018-12-18T18:01:12.732Z,101518.13
2018-12-18T18:03:43.277Z,101517.25
2018-12-18T18:06:12.799Z,101507.50
2018-12-18T18:08:42.396Z,101508.91
2018-12-18T18:11:11.676Z,101505.76
2018-12-18T18:13:42.107Z,101499.56
2018-12-18T18:16:11.927Z,101490.75
2018-12-18T18:18:41.851Z,101485.82
2018-12-18T18:21:11.616Z,101474.22
2018-12-18T18:23:41.175Z,101473.28
2018-12-18T18:26:11.923Z,101475.76
2018-12-18T18:28:41.280Z,101469.94
2018-12-18T18:31:10.543Z,101453.07
2018-12-18T18:33:39.816Z,101457.41
2018-12-18T18:36:09.175Z,101457.08
2018-12-18T18:38:38.452Z,101452.59
2018-12-18T18:41:07.743Z,101444.13
2018-12-18T18:43:37.547Z,101440.13
2018-12-18T18:46:06.811Z,101424.64
2018-12-18T18:48:36.200Z,101415.42
2018-12-18T18:51:05.480Z,101415.50
2018-12-18T18:53:34.760Z,101412.91
2018-12-18T18:56:04.539Z,101403.29
2018-12-18T18:58:34.900Z,101401.11
2018-12-18T19:01:04.444Z,101394.28
2018-12-18T19:03:33.731Z,101385.75
2018-12-18T19:06:03.339Z,101382.63
2018-12-18T19:08:32.792Z,101374.62
2018-12-18T19:11:02.116Z,101378.06
2018-12-18T19:13:31.506Z,101368.72
2018-12-18T19:16:01.169Z,101356.88
2018-12-18T19:18:30.659Z,101353.12
2018-12-18T19:20:59.925Z,101361.12
2018-12-18T19:23:29.972Z,101343.94
2018-12-18T19:25:59.497Z,101334.08
2018-12-18T19:28:28.939Z,101339.98
2018-12-18T19:30:58.312Z,101326.64
2018-12-18T19:33:27.575Z,101326.44
2018-12-18T19:35:57.420Z,101316.45
2018-12-18T19:38:26.871Z,101303.02
2018-12-18T19:40:56.838Z,101307.02
2018-12-18T19:43:27.269Z,101298.56
2018-12-18T19:45:57.875Z,101300.67
2018-12-18T19:48:28.069Z,101305.29
2018-12-18T19:50:57.453Z,101301.37
2018-12-18T19:53:29.874Z,101301.37
2018-12-18T19:55:59.345Z,101295.22
2018-12-18T19:58:28.651Z,101296.03
2018-12-18T20:00:57.931Z,101295.42
2018-12-18T20:03:27.698Z,101285.38
2018-12-18T20:05:57.259Z,101278.27
2018-12-18T20:08:26.574Z,101276.84
2018-12-18T20:10:55.913Z,101280.93
2018-12-18T20:13:26.511Z,101280.93
2018-12-18T20:15:56.095Z,101280.05
2018-12-18T20:18:25.715Z,101285.87
2018-12-18T20:20:55.068Z,101280.20
2018-12-18T20:23:24.624Z,101288.77
2018-12-18T20:25:54.023Z,101274.26
2018-12-18T20:28:23.286Z,101265.37
2018-12-18T20:30:52.550Z,101265.48
2018-12-18T20:33:22.002Z,101268.50
2018-12-18T20:35:51.491Z,101262.14
2018-12-18T20:38:20.760Z,101258.54
2018-12-18T20:40:50.336Z,101262.55
2018-12-18T20:43:19.655Z,101266.86
2018-12-18T20:45:48.967Z,101273.44
2018-12-18T20:48:18.876Z,101265.45
2018-12-18T20:50:48.492Z,101263.61
2018-12-18T20:53:17.798Z,101266.69
2018-12-18T20:55:47.111Z,101265.13
2018-12-18T20:58:16.665Z,101258.45
2018-12-18T21:00:46.500Z,101257.58
2018-12-18T21:03:16.008Z,101259.31
2018-12-18T21:05:45.846Z,101263.31
2018-12-18T21:08:15.963Z,101260.43
2018-12-18T21:10:46.203Z,101253.70
2018-12-18T21:13:20.856Z,101253.30
2018-12-18T21:15:50.456Z,101243.16
2018-12-18T21:18:19.863Z,101252.42
2018-12-18T21:20:49.814Z,101239.55
2018-12-18T21:23:19.082Z,101232.39
2018-12-18T21:25:48.653Z,101223.84
2018-12-18T21:28:18.012Z,101226.52
2018-12-18T21:30:48.176Z,101224.16
2018-12-18T21:33:18.544Z,101226.21
2018-12-18T21:35:48.251Z,101221.80
2018-12-18T21:38:17.804Z,101225.05
2018-12-18T21:40:47.123Z,101213.48
2018-12-18T21:43:17.496Z,101208.94
2018-12-18T21:45:46.858Z,101202.72
2018-12-18T21:48:16.156Z,101189.98
2018-12-18T21:50:45.513Z,101195.27
2018-12-18T21:53:14.803Z,101194.08
2018-12-18T21:55:44.209Z,101187.23
2018-12-18T21:58:13.780Z,101185.27
2018-12-18T22:00:43.068Z,101182.95
2018-12-18T22:03:12.370Z,101187.80
2018-12-18T22:05:41.796Z,101175.92
2018-12-18T22:08:11.156Z,101175.08
2018-12-18T22:10:40.955Z,101171.06
2018-12-18T22:13:10.223Z,101161.33
2018-12-18T22:15:39.818Z,101152.20
2018-12-18T22:18:09.352Z,101141.66
2018-12-18T22:20:39.001Z,101146.34
2018-12-18T22:23:08.544Z,101141.09
2018-12-18T22:25:38.112Z,101134.55
2018-12-18T22:28:07.493Z,101134.95
2018-12-18T22:30:36.992Z,101132.28
2018-12-18T22:33:06.311Z,101138.96
2018-12-18T22:35:35.585Z,101124.19
2018-12-18T22:38:04.848Z,101118.41
2018-12-18T22:40:34.428Z,101107.78
2018-12-18T22:43:03.980Z,101095.41
2018-12-18T22:45:33.272Z,101094.52
2018-12-18T22:48:02.544Z,101087.84
2018-12-18T22:50:32.219Z,101087.45
2018-12-18T22:53:01.537Z,101069.79
2018-12-18T22:55:31.148Z,101070.50
2018-12-18T22:58:00.399Z,101066.49
2018-12-18T23:00:35.616Z,101065.70
2018-12-18T23:03:05.151Z,101065.70
2018-12-18T23:05:34.461Z,101064.84
2018-12-18T23:08:04.020Z,101053.07
2018-12-18T23:10:33.302Z,101047.56
2018-12-18T23:13:02.565Z,101052.10
2018-12-18T23:15:32.130Z,101047.34
2018-12-18T23:18:01.632Z,101038.05
2018-12-18T23:20:31.283Z,101041.52
2018-12-18T23:23:00.849Z,101035.24
2018-12-18T23:25:30.254Z,101035.47
2018-12-18T23:27:59.537Z,101029.59
2018-12-18T23:30:29.205Z,101034.70
2018-12-18T23:32:58.493Z,101028.02
2018-12-18T23:35:28.055Z,101020.41
2018-12-18T23:37:57.331Z,101020.64
2018-12-18T23:40:26.884Z,101015.70
2018-12-18T23:42:56.175Z,101010.28
2018-12-18T23:45:25.488Z,101001.19
2018-12-18T23:47:55.300Z,100980.16
2018-12-18T23:50:24.683Z,100989.40
2018-12-18T23:52:54.151Z,100977.48
2018-12-18T23:55:23.545Z,100968.05
2018-12-18T23:57:53.071Z,100963.89
